createdAt,value
2023-01-31T18:46:39.339Z,1000.00
2023-01-31T18:47:39.141Z,999.96
2023-01-31T18:49:43.820Z,999.92
2023-01-31T18:50:43.681Z,999.93
2023-01-31T18:51:43.666Z,1000.03
2023-01-31T18:52:43.739Z,1000.07
2023-01-31T18:53:43.626Z,999.99
2023-01-31T18:54:43.617Z,999.97
2023-01-31T18:55:43.596Z,999.93
2023-01-31T18:56:43.591Z,999.89
2023-01-31T18:57:43.596Z,999.89
2023-01-31T18:58:43.550Z,999.89
2023-01-31T18:59:43.550Z,999.92
2023-01-31T19:00:43.530Z,999.88
2023-01-31T19:01:43.796Z,999.92
2023-01-31T19:02:43.486Z,999.86
2023-01-31T19:03:43.484Z,999.85
2023-01-31T19:04:43.455Z,999.82
2023-01-31T19:05:43.436Z,999.84
2023-01-31T19:06:43.419Z,999.82
2023-01-31T19:07:43.401Z,999.84
2023-01-31T19:08:43.388Z,999.85
2023-01-31T19:09:43.368Z,999.90
2023-01-31T19:10:43.350Z,999.85
2023-01-31T19:11:43.333Z,999.91
2023-01-31T19:12:43.324Z,999.89
2023-01-31T19:13:43.298Z,999.93
2023-01-31T19:14:43.282Z,999.93
2023-01-31T19:15:43.262Z,999.93
2023-01-31T19:16:43.248Z,999.98
2023-01-31T19:17:43.235Z,999.98
2023-01-31T19:18:43.214Z,999.94
2023-01-31T19:19:43.191Z,999.95
2023-01-31T19:20:43.197Z,999.94
2023-01-31T19:21:43.174Z,999.97
2023-01-31T19:22:43.152Z,999.89
2023-01-31T19:23:43.122Z,999.90
2023-01-31T19:24:43.161Z,999.88
2023-01-31T19:25:43.084Z,999.90
2023-01-31T19:26:43.204Z,999.85
2023-01-31T19:27:43.046Z,999.85
2023-01-31T19:28:43.038Z,999.87
2023-01-31T19:29:43.062Z,999.89
2023-01-31T19:30:43.046Z,999.97
2023-01-31T19:31:43.028Z,999.89
2023-01-31T19:32:42.956Z,999.92
2023-01-31T19:33:42.941Z,999.98
2023-01-31T19:34:43.035Z,999.96
2023-01-31T19:35:42.914Z,1000.01
2023-01-31T19:36:42.894Z,1000.00
2023-01-31T19:37:42.867Z,999.98
2023-01-31T19:38:42.881Z,999.98
2023-01-31T19:39:42.833Z,1000.00
2023-01-31T19:40:42.819Z,999.96
2023-01-31T19:41:42.807Z,999.94
2023-01-31T19:42:42.770Z,999.94
2023-01-31T19:43:42.750Z,999.88
2023-01-31T19:44:42.742Z,999.96
2023-01-31T19:45:42.750Z,999.87
2023-01-31T19:46:42.700Z,999.88
2023-01-31T19:47:42.683Z,999.88
2023-01-31T19:48:42.671Z,999.89
2023-01-31T19:49:42.647Z,999.86
2023-01-31T19:50:42.626Z,999.93
2023-01-31T19:51:42.608Z,999.94
2023-01-31T19:52:42.600Z,999.87
2023-01-31T19:53:42.580Z,999.92
2023-01-31T19:54:42.553Z,999.93
2023-01-31T19:55:42.538Z,999.99
2023-01-31T19:56:42.518Z,999.93
2023-01-31T19:57:42.504Z,999.88
2023-01-31T19:58:42.477Z,999.84
2023-01-31T19:59:42.460Z,999.80
2023-01-31T20:00:42.477Z,999.78
2023-01-31T20:01:42.423Z,999.79
2023-01-31T20:02:42.401Z,999.75
2023-01-31T20:03:42.403Z,999.84
2023-01-31T20:04:42.386Z,999.69
2023-01-31T20:05:42.359Z,999.77
2023-01-31T20:06:42.326Z,999.73
2023-01-31T20:07:42.314Z,999.75
2023-01-31T20:08:42.295Z,999.70
2023-01-31T20:09:42.267Z,999.66
2023-01-31T20:10:42.246Z,999.61
2023-01-31T20:11:42.231Z,999.71
2023-01-31T20:12:42.215Z,999.67
2023-01-31T20:13:42.191Z,999.72
2023-01-31T20:14:42.176Z,999.66
2023-01-31T20:15:42.157Z,999.72
2023-01-31T20:16:42.187Z,999.73
2023-01-31T20:17:42.154Z,999.74
2023-01-31T20:18:42.100Z,999.73
2023-01-31T20:19:42.095Z,999.67
2023-01-31T20:20:42.074Z,999.69
2023-01-31T20:21:42.060Z,999.62
2023-01-31T20:22:42.024Z,999.67
2023-01-31T20:23:42.015Z,999.67
2023-01-31T20:24:41.989Z,999.66
2023-01-31T20:25:41.979Z,999.71
2023-01-31T20:26:42.007Z,999.66
2023-01-31T20:27:41.945Z,999.61
2023-01-31T20:28:41.914Z,999.60
2023-01-31T20:29:41.910Z,999.56
2023-01-31T20:30:41.926Z,999.61
2023-01-31T20:31:41.887Z,999.64
2023-01-31T20:32:41.882Z,999.63
2023-01-31T20:33:41.822Z,999.70
2023-01-31T20:34:41.798Z,999.68
2023-01-31T20:35:41.787Z,999.66
2023-01-31T20:36:41.775Z,999.71
2023-01-31T20:37:41.752Z,999.66
2023-01-31T20:38:41.724Z,999.69
2023-01-31T20:39:41.709Z,999.74
2023-01-31T20:40:41.687Z,999.77
2023-01-31T20:41:41.713Z,999.80
2023-01-31T20:42:41.647Z,999.81
2023-01-31T20:43:41.630Z,999.79
2023-01-31T20:44:41.623Z,999.81
2023-01-31T20:45:41.625Z,999.72
2023-01-31T20:46:41.581Z,999.73
2023-01-31T20:47:41.583Z,999.74
2023-01-31T20:48:41.538Z,999.72
2023-01-31T20:49:41.520Z,999.73
2023-01-31T20:50:41.498Z,999.77
2023-01-31T20:51:41.486Z,999.80
2023-01-31T20:52:41.472Z,999.77
2023-01-31T20:53:41.448Z,999.79
2023-01-31T20:54:41.440Z,999.83
2023-01-31T20:55:41.412Z,999.89
2023-01-31T20:56:41.394Z,999.89
2023-01-31T20:57:41.373Z,999.91
2023-01-31T20:58:41.352Z,999.94
2023-01-31T20:59:41.330Z,999.90
2023-01-31T21:00:41.313Z,999.94
2023-01-31T21:01:41.324Z,999.92
2023-01-31T21:02:41.342Z,999.93
2023-01-31T21:03:41.283Z,999.92
2023-01-31T21:04:41.241Z,999.88
2023-01-31T21:05:41.227Z,999.85
2023-01-31T21:06:41.220Z,999.89
2023-01-31T21:07:41.185Z,999.89
2023-01-31T21:08:41.190Z,999.90
2023-01-31T21:09:41.150Z,999.87
2023-01-31T21:10:41.126Z,999.93
2023-01-31T21:11:41.108Z,999.85
2023-01-31T21:12:41.090Z,999.90
2023-01-31T21:13:41.078Z,999.86
2023-01-31T21:14:41.054Z,999.90
2023-01-31T21:15:41.093Z,999.74
2023-01-31T21:16:41.024Z,999.70
2023-01-31T21:17:40.996Z,999.65
2023-01-31T21:18:40.976Z,999.62
2023-01-31T21:19:40.961Z,999.61
2023-01-31T21:20:41.092Z,999.59
2023-01-31T21:21:40.920Z,999.67
2023-01-31T21:22:40.903Z,999.80
2023-01-31T21:23:40.924Z,999.78
2023-01-31T21:24:40.871Z,999.86
2023-01-31T21:25:40.853Z,999.87
2023-01-31T21:26:40.856Z,999.91
2023-01-31T21:27:40.830Z,999.82
2023-01-31T21:28:40.791Z,999.83
2023-01-31T21:29:40.772Z,999.83
2023-01-31T21:30:40.842Z,999.87
2023-01-31T21:31:40.899Z,999.87
2023-01-31T21:32:40.717Z,999.86
2023-01-31T21:33:40.723Z,999.81
2023-01-31T21:34:41.054Z,999.86
2023-01-31T21:35:40.666Z,999.79
2023-01-31T21:36:40.654Z,999.78
2023-01-31T21:37:40.630Z,999.81
2023-01-31T21:38:40.610Z,999.86
2023-01-31T21:39:40.605Z,999.87
2023-01-31T21:40:40.568Z,999.84
2023-01-31T21:41:40.557Z,999.87
2023-01-31T21:42:42.829Z,999.98
2023-01-31T21:43:40.512Z,999.90
2023-01-31T21:44:40.495Z,999.89
2023-01-31T21:45:40.511Z,999.86
2023-01-31T21:46:40.467Z,999.82
2023-01-31T21:47:40.439Z,999.82
2023-01-31T21:48:40.439Z,999.84
2023-01-31T21:49:40.407Z,999.79
2023-01-31T21:50:40.386Z,999.83
2023-01-31T21:52:40.378Z,999.85
2023-01-31T21:53:40.369Z,999.84
2023-01-31T21:54:40.443Z,999.84
2023-01-31T21:55:40.328Z,999.80
2023-01-31T21:56:40.309Z,999.81
2023-01-31T21:57:40.278Z,999.76
2023-01-31T21:59:01.265Z,999.72
2023-01-31T21:59:40.243Z,999.74
2023-01-31T22:00:40.231Z,999.76
2023-01-31T22:01:40.358Z,999.78
2023-01-31T22:02:40.215Z,999.80
2023-01-31T22:03:40.161Z,999.77
2023-01-31T22:05:01.186Z,999.75
2023-01-31T22:05:40.145Z,999.76
2023-01-31T22:06:40.131Z,999.76
2023-01-31T22:07:40.094Z,999.82
2023-01-31T22:08:40.103Z,999.78
2023-01-31T22:09:40.062Z,999.77
2023-01-31T22:11:01.043Z,999.85
2023-01-31T22:11:40.019Z,999.82
2023-01-31T22:12:40.057Z,999.84
2023-01-31T22:13:39.979Z,999.74
2023-01-31T22:14:40.116Z,999.75
2023-01-31T22:15:39.976Z,999.74
2023-01-31T22:17:00.936Z,999.76
2023-01-31T22:17:39.906Z,999.73
2023-01-31T22:18:39.897Z,999.71
2023-01-31T22:19:39.880Z,999.73
2023-01-31T22:20:39.864Z,999.73
2023-01-31T22:21:39.836Z,999.74
2023-01-31T22:23:00.815Z,999.72
2023-01-31T22:23:40.654Z,999.72
2023-01-31T22:24:39.936Z,999.75
2023-01-31T22:25:39.764Z,999.70
2023-01-31T22:26:39.777Z,999.69
2023-01-31T22:27:39.713Z,999.68
2023-01-31T22:29:00.723Z,999.65
2023-01-31T22:29:39.822Z,999.64
2023-01-31T22:30:39.821Z,999.66
2023-01-31T22:31:39.794Z,999.60
2023-01-31T22:32:39.634Z,999.59
2023-01-31T22:33:39.613Z,999.57
2023-01-31T22:35:00.602Z,999.50
2023-01-31T22:35:39.564Z,999.51
2023-01-31T22:36:39.553Z,999.53
2023-01-31T22:37:39.560Z,999.48
2023-01-31T22:38:39.512Z,999.49
2023-01-31T22:39:39.522Z,999.47
2023-01-31T22:41:00.470Z,999.46
2023-01-31T22:41:39.461Z,999.42
2023-01-31T22:42:39.436Z,999.42
2023-01-31T22:43:39.495Z,999.40
2023-01-31T22:44:39.413Z,999.42
2023-01-31T22:45:39.399Z,999.38
2023-01-31T22:47:00.378Z,999.43
2023-01-31T22:47:39.340Z,999.40
2023-01-31T22:48:39.325Z,999.38
2023-01-31T22:49:39.312Z,999.34
2023-01-31T22:50:39.296Z,999.35
2023-01-31T22:51:39.273Z,999.31
2023-01-31T22:53:00.259Z,999.35
2023-01-31T22:53:39.250Z,999.33
2023-01-31T22:54:39.218Z,999.36
2023-01-31T22:55:39.199Z,999.31
2023-01-31T22:56:39.173Z,999.34
2023-01-31T22:57:39.237Z,999.25
2023-01-31T22:59:00.144Z,999.32
2023-01-31T22:59:39.142Z,999.25
2023-01-31T23:00:39.106Z,999.26
2023-01-31T23:01:39.088Z,999.25
2023-01-31T23:02:39.091Z,999.22
2023-01-31T23:03:39.051Z,999.20
2023-01-31T23:05:00.034Z,999.25
2023-01-31T23:05:39.011Z,999.18
2023-01-31T23:06:41.650Z,999.21
2023-01-31T23:07:38.968Z,999.28
2023-01-31T23:08:39.039Z,999.24
2023-01-31T23:09:39.294Z,999.23
2023-01-31T23:10:59.919Z,999.23
2023-01-31T23:11:38.909Z,999.22
2023-01-31T23:12:38.885Z,999.31
2023-01-31T23:13:38.860Z,999.27
2023-01-31T23:14:38.840Z,999.31
2023-01-31T23:15:38.841Z,999.37
2023-01-31T23:16:59.805Z,999.37
2023-01-31T23:17:38.795Z,999.25
2023-01-31T23:18:38.771Z,999.30
2023-01-31T23:19:38.741Z,999.30
2023-01-31T23:20:38.749Z,999.30
2023-01-31T23:21:38.718Z,999.32
2023-01-31T23:22:59.688Z,999.32
2023-01-31T23:23:38.677Z,999.38
2023-01-31T23:24:38.649Z,999.38
2023-01-31T23:25:38.628Z,999.36
2023-01-31T23:26:38.659Z,999.28
2023-01-31T23:27:38.604Z,999.34
2023-01-31T23:28:59.590Z,999.32
2023-01-31T23:29:38.559Z,999.35
2023-01-31T23:30:38.574Z,999.35
2023-01-31T23:31:38.691Z,999.36
2023-01-31T23:32:38.504Z,999.35
2023-01-31T23:33:38.498Z,999.31
2023-01-31T23:34:59.457Z,999.23
2023-01-31T23:35:38.444Z,999.29
2023-01-31T23:36:38.427Z,999.25
2023-01-31T23:37:38.404Z,999.19
2023-01-31T23:38:38.378Z,999.23
2023-01-31T23:39:38.373Z,999.18
2023-01-31T23:40:59.344Z,999.15
2023-01-31T23:41:38.329Z,999.08
2023-01-31T23:42:38.305Z,999.13
2023-01-31T23:43:38.305Z,999.03
2023-01-31T23:44:38.269Z,999.08
2023-01-31T23:45:38.259Z,999.07
2023-01-31T23:46:59.269Z,999.06
2023-01-31T23:47:38.236Z,999.03
2023-01-31T23:48:38.197Z,998.96
2023-01-31T23:49:38.171Z,998.99
2023-01-31T23:50:38.156Z,998.95
2023-01-31T23:51:38.146Z,998.96
2023-01-31T23:52:59.128Z,999.01
2023-01-31T23:53:38.105Z,999.00
2023-01-31T23:54:38.081Z,999.00
2023-01-31T23:55:38.063Z,998.99
2023-01-31T23:56:38.041Z,998.97
2023-01-31T23:57:38.029Z,998.97
2023-01-31T23:58:59.018Z,998.95
2023-01-31T23:59:37.997Z,998.91
